sensor_id;sensor_type;location;lat;lon;timestamp;P1;durP1;ratioP1;P2;durP2;ratioP2
13335;SDS011;6737;51.480;11.962;2022-09-03T00:01:34;4.10;;;1.02;;
13335;SDS011;6737;51.480;11.962;2022-09-03T00:04:21;2.20;;;1.20;;
13335;SDS011;6737;51.480;11.962;2022-09-03T00:07:14;2.72;;;1.02;;
13335;SDS011;6737;51.480;11.962;2022-09-03T00:09:48;2.88;;;1.38;;
13335;SDS011;6737;51.480;11.962;2022-09-03T00:12:21;2.92;;;1.00;;
13335;SDS011;6737;51.480;11.962;2022-09-03T00:15:05;3.70;;;1.30;;
13335;SDS011;6737;51.480;11.962;2022-09-03T00:17:35;2.13;;;1.00;;
13335;SDS011;6737;51.480;11.962;2022-09-03T00:20:12;1.65;;;1.10;;
13335;SDS011;6737;51.480;11.962;2022-09-03T00:22:47;3.17;;;1.30;;
13335;SDS011;6737;51.480;11.962;2022-09-03T00:25:28;2.17;;;1.13;;
13335;SDS011;6737;51.480;11.962;2022-09-03T00:28:21;2.30;;;1.25;;
13335;SDS011;6737;51.480;11.962;2022-09-03T00:30:52;3.33;;;1.15;;
13335;SDS011;6737;51.480;11.962;2022-09-03T00:33:31;2.17;;;1.05;;
13335;SDS011;6737;51.480;11.962;2022-09-03T00:36:04;6.45;;;1.33;;
13335;SDS011;6737;51.480;11.962;2022-09-03T00:38:37;2.20;;;1.02;;
13335;SDS011;6737;51.480;11.962;2022-09-03T00:41:08;3.83;;;1.42;;
13335;SDS011;6737;51.480;11.962;2022-09-03T00:46:47;3.78;;;1.20;;
13335;SDS011;6737;51.480;11.962;2022-09-03T00:49:30;3.50;;;0.90;;
13335;SDS011;6737;51.480;11.962;2022-09-03T00:52:22;1.38;;;0.98;;
13335;SDS011;6737;51.480;11.962;2022-09-03T01:00:37;3.97;;;1.20;;
13335;SDS011;6737;51.480;11.962;2022-09-03T01:08:58;2.43;;;1.20;;
13335;SDS011;6737;51.480;11.962;2022-09-03T01:12:08;2.28;;;1.02;;
13335;SDS011;6737;51.480;11.962;2022-09-03T01:23:05;2.13;;;1.27;;
13335;SDS011;6737;51.480;11.962;2022-09-03T01:31:49;2.10;;;1.30;;
13335;SDS011;6737;51.480;11.962;2022-09-03T01:40:38;2.93;;;1.10;;
13335;SDS011;6737;51.480;11.962;2022-09-03T01:46:06;3.95;;;1.20;;
13335;SDS011;6737;51.480;11.962;2022-09-03T01:51:27;2.10;;;1.20;;
13335;SDS011;6737;51.480;11.962;2022-09-03T02:02:19;4.83;;;1.30;;
13335;SDS011;6737;51.480;11.962;2022-09-03T02:07:50;2.95;;;1.20;;
13335;SDS011;6737;51.480;11.962;2022-09-03T02:10:24;1.20;;;1.10;;
13335;SDS011;6737;51.480;11.962;2022-09-03T02:12:58;2.70;;;1.20;;
13335;SDS011;6737;51.480;11.962;2022-09-03T02:15:31;2.38;;;1.20;;
13335;SDS011;6737;51.480;11.962;2022-09-03T02:18:00;1.50;;;1.08;;
13335;SDS011;6737;51.480;11.962;2022-09-03T02:20:28;3.53;;;1.20;;
13335;SDS011;6737;51.480;11.962;2022-09-03T02:22:55;2.97;;;1.10;;
13335;SDS011;6737;51.480;11.962;2022-09-03T02:25:22;3.40;;;1.25;;
13335;SDS011;6737;51.480;11.962;2022-09-03T02:27:53;3.57;;;1.30;;
13335;SDS011;6737;51.480;11.962;2022-09-03T02:30:20;1.92;;;1.30;;
13335;SDS011;6737;51.480;11.962;2022-09-03T02:32:45;2.33;;;1.20;;
13335;SDS011;6737;51.480;11.962;2022-09-03T02:35:11;4.20;;;1.52;;
13335;SDS011;6737;51.480;11.962;2022-09-03T02:37:37;3.07;;;1.30;;
13335;SDS011;6737;51.480;11.962;2022-09-03T02:40:03;2.03;;;1.10;;
13335;SDS011;6737;51.480;11.962;2022-09-03T02:42:33;3.00;;;1.33;;
13335;SDS011;6737;51.480;11.962;2022-09-03T02:44:59;4.30;;;1.55;;
13335;SDS011;6737;51.480;11.962;2022-09-03T02:47:35;2.83;;;1.33;;
13335;SDS011;6737;51.480;11.962;2022-09-03T02:50:05;2.27;;;1.10;;
13335;SDS011;6737;51.480;11.962;2022-09-03T02:52:31;1.50;;;1.10;;
13335;SDS011;6737;51.480;11.962;2022-09-03T02:54:56;1.77;;;1.10;;
13335;SDS011;6737;51.480;11.962;2022-09-03T02:57:22;2.67;;;1.23;;
13335;SDS011;6737;51.480;11.962;2022-09-03T02:59:48;3.20;;;1.30;;
13335;SDS011;6737;51.480;11.962;2022-09-03T03:02:14;2.05;;;1.10;;
13335;SDS011;6737;51.480;11.962;2022-09-03T03:04:40;2.47;;;1.30;;
13335;SDS011;6737;51.480;11.962;2022-09-03T03:07:06;2.47;;;1.40;;
13335;SDS011;6737;51.480;11.962;2022-09-03T03:09:32;2.47;;;1.27;;
13335;SDS011;6737;51.480;11.962;2022-09-03T03:11:58;4.00;;;1.33;;
13335;SDS011;6737;51.480;11.962;2022-09-03T03:14:25;2.00;;;1.20;;
13335;SDS011;6737;51.480;11.962;2022-09-03T03:16:50;2.13;;;1.30;;
13335;SDS011;6737;51.480;11.962;2022-09-03T03:19:16;4.97;;;1.33;;
13335;SDS011;6737;51.480;11.962;2022-09-03T03:21:42;1.70;;;1.37;;
13335;SDS011;6737;51.480;11.962;2022-09-03T03:24:08;3.87;;;1.30;;
13335;SDS011;6737;51.480;11.962;2022-09-03T03:26:34;1.40;;;1.20;;
13335;SDS011;6737;51.480;11.962;2022-09-03T03:29:00;3.95;;;1.50;;
13335;SDS011;6737;51.480;11.962;2022-09-03T03:31:30;2.27;;;1.40;;
13335;SDS011;6737;51.480;11.962;2022-09-03T03:33:57;4.33;;;1.30;;
13335;SDS011;6737;51.480;11.962;2022-09-03T03:36:26;2.08;;;1.10;;
13335;SDS011;6737;51.480;11.962;2022-09-03T03:38:55;2.35;;;1.17;;
13335;SDS011;6737;51.480;11.962;2022-09-03T03:41:23;3.30;;;1.03;;
13335;SDS011;6737;51.480;11.962;2022-09-03T03:43:51;1.70;;;1.40;;
13335;SDS011;6737;51.480;11.962;2022-09-03T03:46:19;2.25;;;1.33;;
13335;SDS011;6737;51.480;11.962;2022-09-03T03:48:52;1.77;;;1.30;;
13335;SDS011;6737;51.480;11.962;2022-09-03T03:51:17;2.73;;;1.37;;
13335;SDS011;6737;51.480;11.962;2022-09-03T03:53:44;2.17;;;1.13;;
13335;SDS011;6737;51.480;11.962;2022-09-03T03:56:12;3.13;;;1.37;;
13335;SDS011;6737;51.480;11.962;2022-09-03T03:58:39;1.87;;;1.20;;
13335;SDS011;6737;51.480;11.962;2022-09-03T04:01:12;2.83;;;1.33;;
13335;SDS011;6737;51.480;11.962;2022-09-03T04:03:40;3.07;;;1.20;;
13335;SDS011;6737;51.480;11.962;2022-09-03T04:06:07;3.20;;;1.23;;
13335;SDS011;6737;51.480;11.962;2022-09-03T04:08:34;3.00;;;1.50;;
13335;SDS011;6737;51.480;11.962;2022-09-03T04:11:04;2.70;;;1.40;;
13335;SDS011;6737;51.480;11.962;2022-09-03T04:13:31;3.63;;;1.40;;
13335;SDS011;6737;51.480;11.962;2022-09-03T04:15:59;3.33;;;1.27;;
13335;SDS011;6737;51.480;11.962;2022-09-03T04:18:35;1.97;;;1.40;;
13335;SDS011;6737;51.480;11.962;2022-09-03T04:21:06;3.30;;;1.40;;
13335;SDS011;6737;51.480;11.962;2022-09-03T04:23:34;1.67;;;1.40;;
13335;SDS011;6737;51.480;11.962;2022-09-03T04:26:02;2.27;;;1.40;;
13335;SDS011;6737;51.480;11.962;2022-09-03T04:28:28;2.17;;;1.40;;
13335;SDS011;6737;51.480;11.962;2022-09-03T04:30:59;2.23;;;1.60;;
13335;SDS011;6737;51.480;11.962;2022-09-03T04:33:27;2.70;;;1.50;;
13335;SDS011;6737;51.480;11.962;2022-09-03T04:36:00;3.50;;;1.50;;
13335;SDS011;6737;51.480;11.962;2022-09-03T04:38:32;2.90;;;1.50;;
13335;SDS011;6737;51.480;11.962;2022-09-03T04:40:59;4.23;;;1.40;;
13335;SDS011;6737;51.480;11.962;2022-09-03T04:43:26;5.60;;;1.60;;
13335;SDS011;6737;51.480;11.962;2022-09-03T04:45:59;2.60;;;1.40;;
13335;SDS011;6737;51.480;11.962;2022-09-03T04:48:27;2.20;;;1.27;;
13335;SDS011;6737;51.480;11.962;2022-09-03T04:50:54;2.50;;;1.47;;
13335;SDS011;6737;51.480;11.962;2022-09-03T04:53:29;1.97;;;1.30;;
13335;SDS011;6737;51.480;11.962;2022-09-03T04:55:59;2.77;;;1.47;;
13335;SDS011;6737;51.480;11.962;2022-09-03T04:58:25;6.83;;;1.40;;
13335;SDS011;6737;51.480;11.962;2022-09-03T05:00:51;2.37;;;1.40;;
13335;SDS011;6737;51.480;11.962;2022-09-03T05:03:17;2.37;;;1.50;;
13335;SDS011;6737;51.480;11.962;2022-09-03T05:05:50;4.20;;;1.50;;
13335;SDS011;6737;51.480;11.962;2022-09-03T05:08:20;3.07;;;1.60;;
13335;SDS011;6737;51.480;11.962;2022-09-03T05:10:46;2.83;;;1.50;;
13335;SDS011;6737;51.480;11.962;2022-09-03T05:13:13;2.17;;;1.30;;
13335;SDS011;6737;51.480;11.962;2022-09-03T05:15:39;3.53;;;1.50;;
13335;SDS011;6737;51.480;11.962;2022-09-03T05:18:10;2.30;;;1.50;;
13335;SDS011;6737;51.480;11.962;2022-09-03T05:20:36;2.27;;;1.40;;
13335;SDS011;6737;51.480;11.962;2022-09-03T05:23:02;3.00;;;1.43;;
13335;SDS011;6737;51.480;11.962;2022-09-03T05:25:29;3.37;;;1.50;;
13335;SDS011;6737;51.480;11.962;2022-09-03T05:27:58;2.30;;;1.40;;
13335;SDS011;6737;51.480;11.962;2022-09-03T05:30:24;3.70;;;1.43;;
13335;SDS011;6737;51.480;11.962;2022-09-03T05:32:51;3.30;;;1.70;;
13335;SDS011;6737;51.480;11.962;2022-09-03T05:35:16;9.67;;;1.70;;
13335;SDS011;6737;51.480;11.962;2022-09-03T05:37:43;5.77;;;1.67;;
13335;SDS011;6737;51.480;11.962;2022-09-03T05:40:09;4.07;;;1.60;;
13335;SDS011;6737;51.480;11.962;2022-09-03T05:42:36;5.60;;;1.53;;
13335;SDS011;6737;51.480;11.962;2022-09-03T05:45:06;2.53;;;1.40;;
13335;SDS011;6737;51.480;11.962;2022-09-03T05:47:37;4.50;;;1.60;;
13335;SDS011;6737;51.480;11.962;2022-09-03T05:50:07;2.70;;;1.40;;
13335;SDS011;6737;51.480;11.962;2022-09-03T05:52:35;2.13;;;1.43;;
13335;SDS011;6737;51.480;11.962;2022-09-03T05:55:02;2.37;;;1.47;;
13335;SDS011;6737;51.480;11.962;2022-09-03T05:57:28;3.83;;;1.67;;
13335;SDS011;6737;51.480;11.962;2022-09-03T05:59:55;1.90;;;1.40;;
13335;SDS011;6737;51.480;11.962;2022-09-03T06:02:21;2.07;;;1.60;;
13335;SDS011;6737;51.480;11.962;2022-09-03T06:04:47;2.77;;;1.50;;
13335;SDS011;6737;51.480;11.962;2022-09-03T06:07:13;2.43;;;1.50;;
13335;SDS011;6737;51.480;11.962;2022-09-03T06:09:39;2.87;;;1.60;;
13335;SDS011;6737;51.480;11.962;2022-09-03T06:12:06;1.87;;;1.60;;
13335;SDS011;6737;51.480;11.962;2022-09-03T06:14:32;6.10;;;1.73;;
13335;SDS011;6737;51.480;11.962;2022-09-03T06:16:58;5.40;;;1.50;;
13335;SDS011;6737;51.480;11.962;2022-09-03T06:19:23;2.97;;;1.60;;
13335;SDS011;6737;51.480;11.962;2022-09-03T06:21:49;2.70;;;1.50;;
13335;SDS011;6737;51.480;11.962;2022-09-03T06:24:16;3.07;;;1.50;;
13335;SDS011;6737;51.480;11.962;2022-09-03T06:26:44;3.60;;;1.57;;
13335;SDS011;6737;51.480;11.962;2022-09-03T06:29:10;3.07;;;1.60;;
13335;SDS011;6737;51.480;11.962;2022-09-03T06:31:37;5.57;;;1.63;;
13335;SDS011;6737;51.480;11.962;2022-09-03T06:34:04;4.37;;;1.60;;
13335;SDS011;6737;51.480;11.962;2022-09-03T06:36:30;3.23;;;1.60;;
13335;SDS011;6737;51.480;11.962;2022-09-03T06:38:56;3.23;;;1.70;;
13335;SDS011;6737;51.480;11.962;2022-09-03T06:41:27;2.37;;;1.67;;
13335;SDS011;6737;51.480;11.962;2022-09-03T06:43:57;3.40;;;1.50;;
13335;SDS011;6737;51.480;11.962;2022-09-03T06:46:32;3.77;;;1.60;;
13335;SDS011;6737;51.480;11.962;2022-09-03T06:49:02;5.17;;;1.90;;
13335;SDS011;6737;51.480;11.962;2022-09-03T06:51:29;3.23;;;1.70;;
13335;SDS011;6737;51.480;11.962;2022-09-03T06:54:04;3.50;;;1.50;;
13335;SDS011;6737;51.480;11.962;2022-09-03T06:56:34;4.97;;;1.57;;
13335;SDS011;6737;51.480;11.962;2022-09-03T06:59:06;1.83;;;1.50;;
13335;SDS011;6737;51.480;11.962;2022-09-03T07:01:33;8.70;;;1.70;;
13335;SDS011;6737;51.480;11.962;2022-09-03T07:04:00;3.40;;;1.40;;
13335;SDS011;6737;51.480;11.962;2022-09-03T07:06:29;3.70;;;1.60;;
13335;SDS011;6737;51.480;11.962;2022-09-03T07:08:57;3.63;;;1.60;;
13335;SDS011;6737;51.480;11.962;2022-09-03T07:11:24;3.37;;;1.50;;
13335;SDS011;6737;51.480;11.962;2022-09-03T07:13:53;2.07;;;1.57;;
13335;SDS011;6737;51.480;11.962;2022-09-03T07:16:24;4.17;;;1.73;;
13335;SDS011;6737;51.480;11.962;2022-09-03T07:18:53;5.87;;;1.53;;
13335;SDS011;6737;51.480;11.962;2022-09-03T07:21:21;3.03;;;1.40;;
13335;SDS011;6737;51.480;11.962;2022-09-03T07:23:52;3.63;;;1.50;;
13335;SDS011;6737;51.480;11.962;2022-09-03T07:26:23;5.78;;;1.70;;
13335;SDS011;6737;51.480;11.962;2022-09-03T07:28:51;2.15;;;1.58;;
13335;SDS011;6737;51.480;11.962;2022-09-03T07:31:19;4.60;;;1.97;;
13335;SDS011;6737;51.480;11.962;2022-09-03T07:34:00;2.33;;;1.60;;
13335;SDS011;6737;51.480;11.962;2022-09-03T07:36:30;2.40;;;1.50;;
13335;SDS011;6737;51.480;11.962;2022-09-03T07:39:03;2.13;;;1.40;;
13335;SDS011;6737;51.480;11.962;2022-09-03T07:41:29;4.00;;;1.42;;
13335;SDS011;6737;51.480;11.962;2022-09-03T07:43:57;2.47;;;1.58;;
13335;SDS011;6737;51.480;11.962;2022-09-03T07:46:30;3.00;;;1.55;;
13335;SDS011;6737;51.480;11.962;2022-09-03T07:48:59;4.25;;;1.48;;
13335;SDS011;6737;51.480;11.962;2022-09-03T07:51:30;4.30;;;1.40;;
13335;SDS011;6737;51.480;11.962;2022-09-03T07:53:59;3.38;;;1.52;;
13335;SDS011;6737;51.480;11.962;2022-09-03T07:56:26;1.95;;;1.40;;
13335;SDS011;6737;51.480;11.962;2022-09-03T07:58:55;4.18;;;1.40;;
13335;SDS011;6737;51.480;11.962;2022-09-03T08:01:24;2.53;;;1.40;;
13335;SDS011;6737;51.480;11.962;2022-09-03T08:03:53;2.45;;;1.40;;
13335;SDS011;6737;51.480;11.962;2022-09-03T08:06:21;2.72;;;1.40;;
13335;SDS011;6737;51.480;11.962;2022-09-03T08:08:52;2.03;;;1.50;;
13335;SDS011;6737;51.480;11.962;2022-09-03T08:11:31;2.15;;;1.40;;
13335;SDS011;6737;51.480;11.962;2022-09-03T08:14:02;5.13;;;1.58;;
13335;SDS011;6737;51.480;11.962;2022-09-03T08:16:31;2.95;;;1.50;;
13335;SDS011;6737;51.480;11.962;2022-09-03T08:18:58;4.50;;;1.55;;
13335;SDS011;6737;51.480;11.962;2022-09-03T08:21:25;3.03;;;1.30;;
13335;SDS011;6737;51.480;11.962;2022-09-03T08:23:52;3.03;;;1.55;;
13335;SDS011;6737;51.480;11.962;2022-09-03T08:26:20;4.07;;;1.50;;
13335;SDS011;6737;51.480;11.962;2022-09-03T08:28:47;2.65;;;1.33;;
13335;SDS011;6737;51.480;11.962;2022-09-03T08:31:15;3.28;;;1.35;;
13335;SDS011;6737;51.480;11.962;2022-09-03T08:33:44;1.92;;;1.30;;
13335;SDS011;6737;51.480;11.962;2022-09-03T08:38:42;1.98;;;1.40;;
13335;SDS011;6737;51.480;11.962;2022-09-03T08:41:16;1.80;;;1.33;;
13335;SDS011;6737;51.480;11.962;2022-09-03T08:44:05;2.92;;;1.30;;
13335;SDS011;6737;51.480;11.962;2022-09-03T08:49:32;2.03;;;1.42;;
13335;SDS011;6737;51.480;11.962;2022-09-03T08:52:54;4.20;;;1.40;;
13335;SDS011;6737;51.480;11.962;2022-09-03T08:57:42;3.95;;;1.60;;
13335;SDS011;6737;51.480;11.962;2022-09-03T09:00:47;2.78;;;1.50;;
13335;SDS011;6737;51.480;11.962;2022-09-03T09:22:04;2.80;;;1.50;;
13335;SDS011;6737;51.480;11.962;2022-09-03T09:24:37;2.05;;;1.30;;
13335;SDS011;6737;51.480;11.962;2022-09-03T09:27:07;2.10;;;1.33;;
13335;SDS011;6737;51.480;11.962;2022-09-03T09:29:35;1.63;;;1.20;;
13335;SDS011;6737;51.480;11.962;2022-09-03T09:32:02;5.50;;;1.30;;
13335;SDS011;6737;51.480;11.962;2022-09-03T09:34:35;2.78;;;1.20;;
13335;SDS011;6737;51.480;11.962;2022-09-03T09:37:08;2.30;;;1.23;;
13335;SDS011;6737;51.480;11.962;2022-09-03T09:39:38;4.35;;;1.33;;
13335;SDS011;6737;51.480;11.962;2022-09-03T09:44:38;2.85;;;1.33;;
13335;SDS011;6737;51.480;11.962;2022-09-03T09:52:12;3.30;;;1.30;;
13335;SDS011;6737;51.480;11.962;2022-09-03T09:54:42;3.45;;;1.40;;
13335;SDS011;6737;51.480;11.962;2022-09-03T09:57:22;1.95;;;1.20;;
13335;SDS011;6737;51.480;11.962;2022-09-03T09:59:49;4.13;;;1.40;;
13335;SDS011;6737;51.480;11.962;2022-09-03T10:02:36;3.35;;;1.48;;
13335;SDS011;6737;51.480;11.962;2022-09-03T10:05:15;3.08;;;1.50;;
13335;SDS011;6737;51.480;11.962;2022-09-03T10:07:54;2.85;;;1.25;;
13335;SDS011;6737;51.480;11.962;2022-09-03T10:10:29;2.85;;;1.40;;
13335;SDS011;6737;51.480;11.962;2022-09-03T10:13:05;3.97;;;1.55;;
13335;SDS011;6737;51.480;11.962;2022-09-03T10:18:14;2.45;;;1.30;;
13335;SDS011;6737;51.480;11.962;2022-09-03T10:21:00;5.22;;;1.35;;
13335;SDS011;6737;51.480;11.962;2022-09-03T10:23:50;3.00;;;1.20;;
13335;SDS011;6737;51.480;11.962;2022-09-03T10:26:39;2.88;;;1.27;;
13335;SDS011;6737;51.480;11.962;2022-09-03T10:29:10;4.32;;;1.35;;
13335;SDS011;6737;51.480;11.962;2022-09-03T10:32:02;2.28;;;1.30;;
13335;SDS011;6737;51.480;11.962;2022-09-03T10:42:47;3.30;;;1.30;;
13335;SDS011;6737;51.480;11.962;2022-09-03T10:45:28;2.10;;;1.30;;
13335;SDS011;6737;51.480;11.962;2022-09-03T10:48:15;2.40;;;1.30;;
13335;SDS011;6737;51.480;11.962;2022-09-03T10:56:50;2.42;;;1.40;;
13335;SDS011;6737;51.480;11.962;2022-09-03T11:07:25;2.83;;;1.38;;
13335;SDS011;6737;51.480;11.962;2022-09-03T11:15:41;3.35;;;1.58;;
13335;SDS011;6737;51.480;11.962;2022-09-03T11:18:25;2.67;;;1.50;;
13335;SDS011;6737;51.480;11.962;2022-09-03T11:21:06;3.78;;;1.70;;
13335;SDS011;6737;51.480;11.962;2022-09-03T11:23:36;2.95;;;1.50;;
13335;SDS011;6737;51.480;11.962;2022-09-03T11:26:06;2.50;;;1.58;;
13335;SDS011;6737;51.480;11.962;2022-09-03T11:36:51;2.88;;;1.38;;
13335;SDS011;6737;51.480;11.962;2022-09-03T11:39:42;2.83;;;1.50;;
13335;SDS011;6737;51.480;11.962;2022-09-03T11:42:10;2.47;;;1.83;;
13335;SDS011;6737;51.480;11.962;2022-09-03T11:44:44;2.00;;;1.40;;
13335;SDS011;6737;51.480;11.962;2022-09-03T11:47:20;3.33;;;1.40;;
13335;SDS011;6737;51.480;11.962;2022-09-03T11:49:48;2.30;;;1.30;;
13335;SDS011;6737;51.480;11.962;2022-09-03T11:52:25;2.05;;;1.40;;
13335;SDS011;6737;51.480;11.962;2022-09-03T11:54:53;1.42;;;1.30;;
13335;SDS011;6737;51.480;11.962;2022-09-03T11:57:29;3.35;;;1.50;;
13335;SDS011;6737;51.480;11.962;2022-09-03T12:00:08;2.15;;;1.40;;
13335;SDS011;6737;51.480;11.962;2022-09-03T12:02:45;1.83;;;1.38;;
13335;SDS011;6737;51.480;11.962;2022-09-03T12:10:48;2.53;;;1.52;;
13335;SDS011;6737;51.480;11.962;2022-09-03T12:18:46;2.53;;;1.60;;
13335;SDS011;6737;51.480;11.962;2022-09-03T12:21:17;3.83;;;1.38;;
13335;SDS011;6737;51.480;11.962;2022-09-03T12:23:45;2.13;;;1.50;;
13335;SDS011;6737;51.480;11.962;2022-09-03T12:26:19;5.22;;;1.45;;
13335;SDS011;6737;51.480;11.962;2022-09-03T12:28:51;1.90;;;1.33;;
13335;SDS011;6737;51.480;11.962;2022-09-03T12:31:22;3.38;;;1.48;;
13335;SDS011;6737;51.480;11.962;2022-09-03T12:33:53;1.95;;;1.50;;
13335;SDS011;6737;51.480;11.962;2022-09-03T12:36:24;3.97;;;1.60;;
13335;SDS011;6737;51.480;11.962;2022-09-03T12:38:51;1.98;;;1.30;;
13335;SDS011;6737;51.480;11.962;2022-09-03T12:43:52;1.60;;;1.50;;
13335;SDS011;6737;51.480;11.962;2022-09-03T12:46:23;3.60;;;1.40;;
13335;SDS011;6737;51.480;11.962;2022-09-03T12:48:54;4.25;;;1.60;;
13335;SDS011;6737;51.480;11.962;2022-09-03T12:51:23;2.35;;;1.40;;
13335;SDS011;6737;51.480;11.962;2022-09-03T12:53:50;1.50;;;1.40;;
13335;SDS011;6737;51.480;11.962;2022-09-03T12:56:17;1.92;;;1.40;;
13335;SDS011;6737;51.480;11.962;2022-09-03T12:58:52;2.55;;;1.40;;
13335;SDS011;6737;51.480;11.962;2022-09-03T13:01:24;4.95;;;1.55;;
13335;SDS011;6737;51.480;11.962;2022-09-03T13:06:25;4.72;;;1.40;;
13335;SDS011;6737;51.480;11.962;2022-09-03T13:09:04;7.20;;;1.50;;
13335;SDS011;6737;51.480;11.962;2022-09-03T13:11:33;1.42;;;1.27;;
13335;SDS011;6737;51.480;11.962;2022-09-03T13:14:04;3.75;;;1.63;;
13335;SDS011;6737;51.480;11.962;2022-09-03T13:27:32;6.03;;;1.45;;
13335;SDS011;6737;51.480;11.962;2022-09-03T13:30:05;1.73;;;1.45;;
13335;SDS011;6737;51.480;11.962;2022-09-03T13:35:44;2.67;;;1.60;;
13335;SDS011;6737;51.480;11.962;2022-09-03T13:43:50;4.05;;;1.50;;
13335;SDS011;6737;51.480;11.962;2022-09-03T13:46:40;2.35;;;1.33;;
13335;SDS011;6737;51.480;11.962;2022-09-03T13:52:26;2.03;;;1.33;;
13335;SDS011;6737;51.480;11.962;2022-09-03T13:55:10;2.33;;;1.67;;
13335;SDS011;6737;51.480;11.962;2022-09-03T13:57:49;2.35;;;1.30;;
13335;SDS011;6737;51.480;11.962;2022-09-03T14:06:08;5.47;;;1.50;;
13335;SDS011;6737;51.480;11.962;2022-09-03T14:09:05;1.65;;;1.35;;
13335;SDS011;6737;51.480;11.962;2022-09-03T14:17:22;3.65;;;1.55;;
13335;SDS011;6737;51.480;11.962;2022-09-03T14:20:38;3.08;;;1.40;;
13335;SDS011;6737;51.480;11.962;2022-09-03T14:25:23;4.50;;;1.30;;
13335;SDS011;6737;51.480;11.962;2022-09-03T14:27:50;1.60;;;1.40;;
13335;SDS011;6737;51.480;11.962;2022-09-03T14:30:23;5.00;;;1.33;;
13335;SDS011;6737;51.480;11.962;2022-09-03T14:32:53;1.88;;;1.35;;
13335;SDS011;6737;51.480;11.962;2022-09-03T14:40:55;2.17;;;1.40;;
13335;SDS011;6737;51.480;11.962;2022-09-03T14:44:01;1.42;;;1.30;;
13335;SDS011;6737;51.480;11.962;2022-09-03T14:46:37;1.83;;;1.50;;
13335;SDS011;6737;51.480;11.962;2022-09-03T14:49:09;3.60;;;1.30;;
13335;SDS011;6737;51.480;11.962;2022-09-03T14:52:06;2.55;;;1.30;;
13335;SDS011;6737;51.480;11.962;2022-09-03T15:10:38;2.67;;;1.45;;
13335;SDS011;6737;51.480;11.962;2022-09-03T15:13:19;5.07;;;1.52;;
13335;SDS011;6737;51.480;11.962;2022-09-03T15:16:10;4.93;;;1.30;;
13335;SDS011;6737;51.480;11.962;2022-09-03T15:24:35;2.03;;;1.38;;
13335;SDS011;6737;51.480;11.962;2022-09-03T15:30:05;1.90;;;1.45;;
13335;SDS011;6737;51.480;11.962;2022-09-03T15:38:21;1.80;;;1.30;;
13335;SDS011;6737;51.480;11.962;2022-09-03T15:41:09;2.88;;;1.38;;
13335;SDS011;6737;51.480;11.962;2022-09-03T15:43:47;3.42;;;1.38;;
13335;SDS011;6737;51.480;11.962;2022-09-03T15:57:15;2.05;;;1.33;;
13335;SDS011;6737;51.480;11.962;2022-09-03T15:59:49;1.70;;;1.60;;
13335;SDS011;6737;51.480;11.962;2022-09-03T16:02:25;3.08;;;1.52;;
13335;SDS011;6737;51.480;11.962;2022-09-03T16:10:11;1.95;;;1.50;;
13335;SDS011;6737;51.480;11.962;2022-09-03T16:15:38;2.38;;;1.40;;
13335;SDS011;6737;51.480;11.962;2022-09-03T16:18:24;3.20;;;1.48;;
13335;SDS011;6737;51.480;11.962;2022-09-03T16:23:45;2.75;;;1.50;;
13335;SDS011;6737;51.480;11.962;2022-09-03T16:29:08;1.60;;;1.40;;
13335;SDS011;6737;51.480;11.962;2022-09-03T16:37:26;4.28;;;1.50;;
13335;SDS011;6737;51.480;11.962;2022-09-03T16:46:03;2.70;;;1.70;;
13335;SDS011;6737;51.480;11.962;2022-09-03T16:48:44;3.47;;;1.63;;
13335;SDS011;6737;51.480;11.962;2022-09-03T16:54:13;2.25;;;1.52;;
13335;SDS011;6737;51.480;11.962;2022-09-03T16:56:53;4.43;;;1.60;;
13335;SDS011;6737;51.480;11.962;2022-09-03T17:05:00;3.53;;;1.30;;
13335;SDS011;6737;51.480;11.962;2022-09-03T17:07:41;2.22;;;1.40;;
13335;SDS011;6737;51.480;11.962;2022-09-03T17:24:19;3.42;;;1.75;;
13335;SDS011;6737;51.480;11.962;2022-09-03T17:37:13;5.38;;;1.80;;
13335;SDS011;6737;51.480;11.962;2022-09-03T17:42:43;4.63;;;1.80;;
13335;SDS011;6737;51.480;11.962;2022-09-03T17:50:48;2.75;;;1.83;;
13335;SDS011;6737;51.480;11.962;2022-09-03T17:53:50;5.70;;;2.17;;
13335;SDS011;6737;51.480;11.962;2022-09-03T17:56:27;3.47;;;1.80;;
13335;SDS011;6737;51.480;11.962;2022-09-03T18:02:21;2.67;;;1.95;;
13335;SDS011;6737;51.480;11.962;2022-09-03T18:04:54;4.90;;;2.10;;
13335;SDS011;6737;51.480;11.962;2022-09-03T18:15:28;4.97;;;1.90;;
13335;SDS011;6737;51.480;11.962;2022-09-03T18:18:12;4.40;;;2.08;;
13335;SDS011;6737;51.480;11.962;2022-09-03T18:20:51;2.75;;;1.75;;
13335;SDS011;6737;51.480;11.962;2022-09-03T18:26:46;3.88;;;2.20;;
13335;SDS011;6737;51.480;11.962;2022-09-03T18:32:31;3.28;;;1.83;;
13335;SDS011;6737;51.480;11.962;2022-09-03T18:35:16;3.67;;;2.20;;
13335;SDS011;6737;51.480;11.962;2022-09-03T18:38:01;6.00;;;2.15;;
13335;SDS011;6737;51.480;11.962;2022-09-03T18:41:04;2.83;;;2.10;;
13335;SDS011;6737;51.480;11.962;2022-09-03T18:44:02;2.95;;;1.90;;
13335;SDS011;6737;51.480;11.962;2022-09-03T18:46:56;4.70;;;2.20;;
13335;SDS011;6737;51.480;11.962;2022-09-03T18:50:25;3.25;;;2.10;;
13335;SDS011;6737;51.480;11.962;2022-09-03T18:53:32;3.45;;;2.00;;
13335;SDS011;6737;51.480;11.962;2022-09-03T18:56:34;5.28;;;2.33;;
13335;SDS011;6737;51.480;11.962;2022-09-03T19:05:55;3.95;;;2.17;;
13335;SDS011;6737;51.480;11.962;2022-09-03T19:12:11;4.50;;;2.50;;
13335;SDS011;6737;51.480;11.962;2022-09-03T19:21:02;4.45;;;2.13;;
13335;SDS011;6737;51.480;11.962;2022-09-03T19:23:59;4.82;;;2.13;;
13335;SDS011;6737;51.480;11.962;2022-09-03T19:26:47;3.88;;;2.40;;
13335;SDS011;6737;51.480;11.962;2022-09-03T19:33:15;4.60;;;2.70;;
13335;SDS011;6737;51.480;11.962;2022-09-03T19:36:29;5.30;;;2.50;;
13335;SDS011;6737;51.480;11.962;2022-09-03T19:49:17;8.02;;;2.53;;
13335;SDS011;6737;51.480;11.962;2022-09-03T19:52:05;3.60;;;2.25;;
13335;SDS011;6737;51.480;11.962;2022-09-03T19:54:56;2.70;;;2.20;;
13335;SDS011;6737;51.480;11.962;2022-09-03T19:57:42;7.18;;;2.60;;
13335;SDS011;6737;51.480;11.962;2022-09-03T20:00:33;6.03;;;2.38;;
13335;SDS011;6737;51.480;11.962;2022-09-03T20:03:17;5.00;;;2.75;;
13335;SDS011;6737;51.480;11.962;2022-09-03T20:06:02;3.00;;;2.40;;
13335;SDS011;6737;51.480;11.962;2022-09-03T20:08:49;6.57;;;2.60;;
13335;SDS011;6737;51.480;11.962;2022-09-03T20:11:35;5.03;;;2.90;;
13335;SDS011;6737;51.480;11.962;2022-09-03T20:14:03;4.25;;;2.75;;
13335;SDS011;6737;51.480;11.962;2022-09-03T20:16:53;4.43;;;2.80;;
13335;SDS011;6737;51.480;11.962;2022-09-03T20:19:45;3.03;;;2.30;;
13335;SDS011;6737;51.480;11.962;2022-09-03T20:27:42;5.13;;;2.75;;
13335;SDS011;6737;51.480;11.962;2022-09-03T20:30:40;5.22;;;2.50;;
13335;SDS011;6737;51.480;11.962;2022-09-03T20:39:02;4.03;;;2.42;;
13335;SDS011;6737;51.480;11.962;2022-09-03T20:47:35;6.80;;;2.78;;
13335;SDS011;6737;51.480;11.962;2022-09-03T20:50:14;2.92;;;2.33;;
13335;SDS011;6737;51.480;11.962;2022-09-03T20:55:19;4.25;;;2.88;;
13335;SDS011;6737;51.480;11.962;2022-09-03T21:03:43;4.15;;;2.60;;
13335;SDS011;6737;51.480;11.962;2022-09-03T21:06:54;5.85;;;2.67;;
13335;SDS011;6737;51.480;11.962;2022-09-03T21:09:39;5.93;;;2.83;;
13335;SDS011;6737;51.480;11.962;2022-09-03T21:15:44;5.25;;;2.65;;
13335;SDS011;6737;51.480;11.962;2022-09-03T21:23:42;5.78;;;2.88;;
13335;SDS011;6737;51.480;11.962;2022-09-03T21:26:19;6.50;;;2.70;;
13335;SDS011;6737;51.480;11.962;2022-09-03T21:28:51;4.38;;;2.60;;
13335;SDS011;6737;51.480;11.962;2022-09-03T21:31:48;4.22;;;3.00;;
13335;SDS011;6737;51.480;11.962;2022-09-03T21:34:36;4.55;;;2.58;;
13335;SDS011;6737;51.480;11.962;2022-09-03T21:37:08;5.22;;;2.55;;
13335;SDS011;6737;51.480;11.962;2022-09-03T21:39:43;6.20;;;2.75;;
13335;SDS011;6737;51.480;11.962;2022-09-03T21:47:22;4.90;;;2.80;;
13335;SDS011;6737;51.480;11.962;2022-09-03T21:49:56;3.72;;;2.80;;